sensor_id;sensor_type;location;lat;lon;timestamp;P1;durP1;ratioP1;P2;durP2;ratioP2
59006;SDS011;44792;52.760;6.726;2023-03-05T00:02:23;6.25;;;1.70;;
59006;SDS011;44792;52.760;6.726;2023-03-05T00:04:48;3.95;;;1.40;;
59006;SDS011;44792;52.760;6.726;2023-03-05T00:07:14;4.45;;;2.10;;
59006;SDS011;44792;52.760;6.726;2023-03-05T00:09:40;10.48;;;2.25;;
59006;SDS011;44792;52.760;6.726;2023-03-05T00:12:06;6.50;;;1.95;;
59006;SDS011;44792;52.760;6.726;2023-03-05T00:14:32;6.28;;;2.22;;
59006;SDS011;44792;52.760;6.726;2023-03-05T00:16:57;7.78;;;1.83;;
59006;SDS011;44792;52.760;6.726;2023-03-05T00:19:23;4.20;;;1.90;;
59006;SDS011;44792;52.760;6.726;2023-03-05T00:21:49;7.68;;;3.35;;
59006;SDS011;44792;52.760;6.726;2023-03-05T00:24:15;8.18;;;1.98;;
59006;SDS011;44792;52.760;6.726;2023-03-05T00:26:42;6.22;;;1.98;;
59006;SDS011;44792;52.760;6.726;2023-03-05T00:29:09;7.50;;;2.13;;
59006;SDS011;44792;52.760;6.726;2023-03-05T00:31:38;4.10;;;1.98;;
59006;SDS011;44792;52.760;6.726;2023-03-05T00:34:08;10.77;;;2.30;;
59006;SDS011;44792;52.760;6.726;2023-03-05T00:36:43;4.70;;;1.92;;
59006;SDS011;44792;52.760;6.726;2023-03-05T00:39:11;7.75;;;2.03;;
59006;SDS011;44792;52.760;6.726;2023-03-05T00:41:37;9.27;;;2.28;;
59006;SDS011;44792;52.760;6.726;2023-03-05T00:44:03;7.18;;;1.65;;
59006;SDS011;44792;52.760;6.726;2023-03-05T00:46:29;10.07;;;2.53;;
59006;SDS011;44792;52.760;6.726;2023-03-05T00:48:55;6.32;;;1.90;;
59006;SDS011;44792;52.760;6.726;2023-03-05T00:51:21;8.10;;;2.20;;
59006;SDS011;44792;52.760;6.726;2023-03-05T00:53:47;4.47;;;2.97;;
59006;SDS011;44792;52.760;6.726;2023-03-05T00:56:13;9.10;;;2.60;;
59006;SDS011;44792;52.760;6.726;2023-03-05T00:58:39;7.85;;;2.35;;
59006;SDS011;44792;52.760;6.726;2023-03-05T01:01:04;2.20;;;1.70;;
59006;SDS011;44792;52.760;6.726;2023-03-05T01:03:31;9.23;;;2.20;;
59006;SDS011;44792;52.760;6.726;2023-03-05T01:05:58;8.25;;;1.67;;
59006;SDS011;44792;52.760;6.726;2023-03-05T01:08:24;6.30;;;1.63;;
59006;SDS011;44792;52.760;6.726;2023-03-05T01:10:50;11.68;;;1.95;;
59006;SDS011;44792;52.760;6.726;2023-03-05T01:13:16;6.00;;;1.70;;
59006;SDS011;44792;52.760;6.726;2023-03-05T01:15:42;3.47;;;1.42;;
59006;SDS011;44792;52.760;6.726;2023-03-05T01:18:08;3.67;;;1.30;;
59006;SDS011;44792;52.760;6.726;2023-03-05T01:20:34;2.63;;;1.60;;
59006;SDS011;44792;52.760;6.726;2023-03-05T01:23:00;4.55;;;1.75;;
59006;SDS011;44792;52.760;6.726;2023-03-05T01:25:26;3.42;;;1.25;;
59006;SDS011;44792;52.760;6.726;2023-03-05T01:27:51;5.82;;;2.28;;
59006;SDS011;44792;52.760;6.726;2023-03-05T01:30:17;4.20;;;1.40;;
59006;SDS011;44792;52.760;6.726;2023-03-05T01:32:43;8.65;;;2.03;;
59006;SDS011;44792;52.760;6.726;2023-03-05T01:35:10;7.03;;;2.72;;
59006;SDS011;44792;52.760;6.726;2023-03-05T01:37:41;4.07;;;1.33;;
59006;SDS011;44792;52.760;6.726;2023-03-05T01:40:09;6.57;;;1.88;;
59006;SDS011;44792;52.760;6.726;2023-03-05T01:42:36;4.05;;;2.50;;
59006;SDS011;44792;52.760;6.726;2023-03-05T01:45:03;5.13;;;1.60;;
59006;SDS011;44792;52.760;6.726;2023-03-05T01:47:37;3.33;;;1.90;;
59006;SDS011;44792;52.760;6.726;2023-03-05T01:50:04;4.75;;;1.58;;
59006;SDS011;44792;52.760;6.726;2023-03-05T01:52:31;10.82;;;2.20;;
59006;SDS011;44792;52.760;6.726;2023-03-05T01:55:00;5.20;;;2.08;;
59006;SDS011;44792;52.760;6.726;2023-03-05T01:57:33;4.10;;;1.85;;
59006;SDS011;44792;52.760;6.726;2023-03-05T02:00:08;6.20;;;1.70;;
59006;SDS011;44792;52.760;6.726;2023-03-05T02:02:39;4.32;;;1.88;;
59006;SDS011;44792;52.760;6.726;2023-03-05T02:05:07;5.82;;;1.58;;
59006;SDS011;44792;52.760;6.726;2023-03-05T02:07:36;5.55;;;2.03;;
59006;SDS011;44792;52.760;6.726;2023-03-05T02:10:20;4.00;;;1.98;;
59006;SDS011;44792;52.760;6.726;2023-03-05T02:12:51;7.05;;;1.90;;
59006;SDS011;44792;52.760;6.726;2023-03-05T02:15:19;9.95;;;2.00;;
59006;SDS011;44792;52.760;6.726;2023-03-05T02:17:45;3.45;;;1.80;;
59006;SDS011;44792;52.760;6.726;2023-03-05T02:20:13;3.00;;;1.50;;
59006;SDS011;44792;52.760;6.726;2023-03-05T02:22:43;7.30;;;1.65;;
59006;SDS011;44792;52.760;6.726;2023-03-05T02:25:11;4.97;;;1.85;;
59006;SDS011;44792;52.760;6.726;2023-03-05T02:27:42;5.63;;;1.80;;
59006;SDS011;44792;52.760;6.726;2023-03-05T02:30:13;7.65;;;2.63;;
59006;SDS011;44792;52.760;6.726;2023-03-05T02:32:38;3.80;;;1.63;;
59006;SDS011;44792;52.760;6.726;2023-03-05T02:35:04;5.90;;;1.60;;
59006;SDS011;44792;52.760;6.726;2023-03-05T02:37:30;8.07;;;2.22;;
59006;SDS011;44792;52.760;6.726;2023-03-05T02:39:56;7.82;;;2.53;;
59006;SDS011;44792;52.760;6.726;2023-03-05T02:42:21;2.35;;;1.65;;
59006;SDS011;44792;52.760;6.726;2023-03-05T02:44:47;5.70;;;2.33;;
59006;SDS011;44792;52.760;6.726;2023-03-05T02:47:12;4.93;;;1.40;;
59006;SDS011;44792;52.760;6.726;2023-03-05T02:49:38;2.65;;;1.80;;
59006;SDS011;44792;52.760;6.726;2023-03-05T02:52:03;2.67;;;1.65;;
59006;SDS011;44792;52.760;6.726;2023-03-05T02:54:29;5.43;;;2.42;;
59006;SDS011;44792;52.760;6.726;2023-03-05T02:56:55;7.93;;;2.20;;
59006;SDS011;44792;52.760;6.726;2023-03-05T02:59:20;6.55;;;1.90;;
59006;SDS011;44792;52.760;6.726;2023-03-05T03:01:46;7.25;;;1.75;;
59006;SDS011;44792;52.760;6.726;2023-03-05T03:04:11;6.28;;;1.98;;
59006;SDS011;44792;52.760;6.726;2023-03-05T03:06:37;6.07;;;1.90;;
59006;SDS011;44792;52.760;6.726;2023-03-05T03:09:03;3.88;;;1.98;;
59006;SDS011;44792;52.760;6.726;2023-03-05T03:11:28;6.30;;;1.60;;
59006;SDS011;44792;52.760;6.726;2023-03-05T03:13:55;5.28;;;1.80;;
59006;SDS011;44792;52.760;6.726;2023-03-05T03:16:20;9.60;;;3.17;;
59006;SDS011;44792;52.760;6.726;2023-03-05T03:18:46;9.15;;;2.42;;
59006;SDS011;44792;52.760;6.726;2023-03-05T03:21:19;6.65;;;1.85;;
59006;SDS011;44792;52.760;6.726;2023-03-05T03:23:47;7.00;;;1.88;;
59006;SDS011;44792;52.760;6.726;2023-03-05T03:26:12;8.25;;;2.13;;
59006;SDS011;44792;52.760;6.726;2023-03-05T03:28:38;3.67;;;2.47;;
59006;SDS011;44792;52.760;6.726;2023-03-05T03:31:03;5.20;;;1.80;;
59006;SDS011;44792;52.760;6.726;2023-03-05T03:33:30;3.47;;;1.75;;
59006;SDS011;44792;52.760;6.726;2023-03-05T03:35:55;3.95;;;1.70;;
59006;SDS011;44792;52.760;6.726;2023-03-05T03:38:21;10.48;;;2.10;;
59006;SDS011;44792;52.760;6.726;2023-03-05T03:40:46;5.63;;;2.08;;
59006;SDS011;44792;52.760;6.726;2023-03-05T03:43:12;3.17;;;1.67;;
59006;SDS011;44792;52.760;6.726;2023-03-05T03:45:41;6.13;;;2.00;;
59006;SDS011;44792;52.760;6.726;2023-03-05T03:48:08;13.90;;;2.60;;
59006;SDS011;44792;52.760;6.726;2023-03-05T03:50:37;2.90;;;1.75;;
59006;SDS011;44792;52.760;6.726;2023-03-05T03:53:06;6.03;;;1.95;;
59006;SDS011;44792;52.760;6.726;2023-03-05T03:55:32;4.13;;;1.73;;
59006;SDS011;44792;52.760;6.726;2023-03-05T03:57:59;3.25;;;1.67;;
59006;SDS011;44792;52.760;6.726;2023-03-05T04:00:25;5.50;;;1.52;;
59006;SDS011;44792;52.760;6.726;2023-03-05T04:02:51;5.80;;;2.20;;
59006;SDS011;44792;52.760;6.726;2023-03-05T04:05:16;6.90;;;1.88;;
59006;SDS011;44792;52.760;6.726;2023-03-05T04:07:42;5.80;;;1.55;;
59006;SDS011;44792;52.760;6.726;2023-03-05T04:10:09;6.30;;;1.40;;
59006;SDS011;44792;52.760;6.726;2023-03-05T04:12:36;4.60;;;1.92;;
59006;SDS011;44792;52.760;6.726;2023-03-05T04:15:01;3.08;;;1.38;;
59006;SDS011;44792;52.760;6.726;2023-03-05T04:17:27;5.18;;;2.22;;
59006;SDS011;44792;52.760;6.726;2023-03-05T04:19:53;4.60;;;1.58;;
59006;SDS011;44792;52.760;6.726;2023-03-05T04:22:19;3.85;;;1.40;;
59006;SDS011;44792;52.760;6.726;2023-03-05T04:24:44;4.50;;;1.88;;
59006;SDS011;44792;52.760;6.726;2023-03-05T04:27:11;4.55;;;1.60;;
59006;SDS011;44792;52.760;6.726;2023-03-05T04:29:37;4.13;;;1.30;;
59006;SDS011;44792;52.760;6.726;2023-03-05T04:32:02;5.13;;;1.70;;
59006;SDS011;44792;52.760;6.726;2023-03-05T04:34:28;2.65;;;1.40;;
59006;SDS011;44792;52.760;6.726;2023-03-05T04:36:54;1.88;;;1.33;;
59006;SDS011;44792;52.760;6.726;2023-03-05T04:39:19;1.40;;;1.30;;
59006;SDS011;44792;52.760;6.726;2023-03-05T04:41:45;2.40;;;1.30;;
59006;SDS011;44792;52.760;6.726;2023-03-05T04:44:12;2.47;;;1.20;;
59006;SDS011;44792;52.760;6.726;2023-03-05T04:46:37;7.28;;;1.55;;
59006;SDS011;44792;52.760;6.726;2023-03-05T04:49:03;3.90;;;1.38;;
59006;SDS011;44792;52.760;6.726;2023-03-05T04:51:29;3.30;;;1.73;;
59006;SDS011;44792;52.760;6.726;2023-03-05T04:53:54;3.92;;;1.60;;
59006;SDS011;44792;52.760;6.726;2023-03-05T04:56:20;2.15;;;1.95;;
59006;SDS011;44792;52.760;6.726;2023-03-05T04:58:45;7.30;;;1.70;;
59006;SDS011;44792;52.760;6.726;2023-03-05T05:01:11;3.53;;;1.27;;
59006;SDS011;44792;52.760;6.726;2023-03-05T05:03:37;1.58;;;1.45;;
59006;SDS011;44792;52.760;6.726;2023-03-05T05:06:03;4.85;;;1.40;;
59006;SDS011;44792;52.760;6.726;2023-03-05T05:08:29;1.75;;;1.48;;
59006;SDS011;44792;52.760;6.726;2023-03-05T05:11:05;2.55;;;1.10;;
59006;SDS011;44792;52.760;6.726;2023-03-05T05:13:33;2.22;;;1.38;;
59006;SDS011;44792;52.760;6.726;2023-03-05T05:15:59;1.42;;;1.13;;
59006;SDS011;44792;52.760;6.726;2023-03-05T05:18:25;1.95;;;1.23;;
59006;SDS011;44792;52.760;6.726;2023-03-05T05:20:51;3.58;;;1.77;;
59006;SDS011;44792;52.760;6.726;2023-03-05T05:23:16;3.28;;;1.65;;
59006;SDS011;44792;52.760;6.726;2023-03-05T05:25:43;3.92;;;1.60;;
59006;SDS011;44792;52.760;6.726;2023-03-05T05:28:09;2.97;;;1.60;;
59006;SDS011;44792;52.760;6.726;2023-03-05T05:30:36;4.38;;;1.40;;
59006;SDS011;44792;52.760;6.726;2023-03-05T05:33:01;4.43;;;1.40;;
59006;SDS011;44792;52.760;6.726;2023-03-05T05:35:27;4.43;;;1.23;;
59006;SDS011;44792;52.760;6.726;2023-03-05T05:37:53;2.78;;;1.35;;
59006;SDS011;44792;52.760;6.726;2023-03-05T05:40:18;4.03;;;1.17;;
59006;SDS011;44792;52.760;6.726;2023-03-05T05:42:44;7.85;;;1.63;;
59006;SDS011;44792;52.760;6.726;2023-03-05T05:45:10;4.20;;;1.63;;
59006;SDS011;44792;52.760;6.726;2023-03-05T05:47:36;2.00;;;1.20;;
59006;SDS011;44792;52.760;6.726;2023-03-05T05:50:02;4.28;;;1.60;;
59006;SDS011;44792;52.760;6.726;2023-03-05T05:52:28;3.05;;;1.40;;
59006;SDS011;44792;52.760;6.726;2023-03-05T05:54:54;1.30;;;1.20;;
59006;SDS011;44792;52.760;6.726;2023-03-05T05:57:19;4.25;;;1.52;;
59006;SDS011;44792;52.760;6.726;2023-03-05T05:59:45;7.55;;;1.42;;
59006;SDS011;44792;52.760;6.726;2023-03-05T06:02:11;6.07;;;2.03;;
59006;SDS011;44792;52.760;6.726;2023-03-05T06:04:36;1.95;;;1.40;;
59006;SDS011;44792;52.760;6.726;2023-03-05T06:07:03;4.32;;;1.65;;
59006;SDS011;44792;52.760;6.726;2023-03-05T06:09:29;4.20;;;1.60;;
59006;SDS011;44792;52.760;6.726;2023-03-05T06:11:55;6.72;;;1.55;;
59006;SDS011;44792;52.760;6.726;2023-03-05T06:14:20;4.15;;;1.67;;
59006;SDS011;44792;52.760;6.726;2023-03-05T06:16:46;2.45;;;1.30;;
59006;SDS011;44792;52.760;6.726;2023-03-05T06:19:12;2.08;;;1.23;;
59006;SDS011;44792;52.760;6.726;2023-03-05T06:21:39;4.55;;;1.65;;
59006;SDS011;44792;52.760;6.726;2023-03-05T06:24:04;1.85;;;1.40;;
59006;SDS011;44792;52.760;6.726;2023-03-05T06:26:31;2.40;;;1.55;;
59006;SDS011;44792;52.760;6.726;2023-03-05T06:28:56;3.10;;;1.42;;
59006;SDS011;44792;52.760;6.726;2023-03-05T06:31:23;3.33;;;1.58;;
59006;SDS011;44792;52.760;6.726;2023-03-05T06:33:50;4.03;;;1.13;;
59006;SDS011;44792;52.760;6.726;2023-03-05T06:36:19;6.25;;;1.80;;
59006;SDS011;44792;52.760;6.726;2023-03-05T06:38:46;5.00;;;1.40;;
59006;SDS011;44792;52.760;6.726;2023-03-05T06:41:13;4.93;;;1.30;;
59006;SDS011;44792;52.760;6.726;2023-03-05T06:43:41;1.83;;;1.58;;
59006;SDS011;44792;52.760;6.726;2023-03-05T06:46:16;5.72;;;1.70;;
59006;SDS011;44792;52.760;6.726;2023-03-05T06:48:44;3.15;;;1.30;;
59006;SDS011;44792;52.760;6.726;2023-03-05T06:51:21;2.05;;;1.50;;
59006;SDS011;44792;52.760;6.726;2023-03-05T06:53:48;1.67;;;1.52;;
59006;SDS011;44792;52.760;6.726;2023-03-05T06:56:15;2.92;;;1.50;;
59006;SDS011;44792;52.760;6.726;2023-03-05T06:58:42;3.72;;;1.58;;
59006;SDS011;44792;52.760;6.726;2023-03-05T07:01:10;5.15;;;1.45;;
59006;SDS011;44792;52.760;6.726;2023-03-05T07:03:36;5.65;;;1.50;;
59006;SDS011;44792;52.760;6.726;2023-03-05T07:06:03;2.40;;;1.60;;
59006;SDS011;44792;52.760;6.726;2023-03-05T07:08:33;3.30;;;1.25;;
59006;SDS011;44792;52.760;6.726;2023-03-05T07:10:59;6.90;;;1.50;;
59006;SDS011;44792;52.760;6.726;2023-03-05T07:13:25;3.38;;;1.73;;
59006;SDS011;44792;52.760;6.726;2023-03-05T07:15:50;2.72;;;1.65;;
59006;SDS011;44792;52.760;6.726;2023-03-05T07:18:16;3.85;;;1.58;;
59006;SDS011;44792;52.760;6.726;2023-03-05T07:20:42;3.38;;;1.85;;
59006;SDS011;44792;52.760;6.726;2023-03-05T07:23:07;7.00;;;1.63;;
59006;SDS011;44792;52.760;6.726;2023-03-05T07:25:34;9.57;;;1.90;;
59006;SDS011;44792;52.760;6.726;2023-03-05T07:28:02;5.70;;;1.77;;
59006;SDS011;44792;52.760;6.726;2023-03-05T07:30:29;2.78;;;1.50;;
59006;SDS011;44792;52.760;6.726;2023-03-05T07:32:55;4.43;;;2.08;;
59006;SDS011;44792;52.760;6.726;2023-03-05T07:35:21;4.72;;;1.92;;
59006;SDS011;44792;52.760;6.726;2023-03-05T07:37:48;9.63;;;2.83;;
59006;SDS011;44792;52.760;6.726;2023-03-05T07:40:14;6.82;;;2.35;;
59006;SDS011;44792;52.760;6.726;2023-03-05T07:42:40;8.38;;;2.08;;
59006;SDS011;44792;52.760;6.726;2023-03-05T07:45:05;3.83;;;1.95;;
59006;SDS011;44792;52.760;6.726;2023-03-05T07:47:31;3.33;;;1.88;;
59006;SDS011;44792;52.760;6.726;2023-03-05T07:49:57;7.35;;;3.75;;
59006;SDS011;44792;52.760;6.726;2023-03-05T07:52:23;12.20;;;4.53;;
59006;SDS011;44792;52.760;6.726;2023-03-05T07:54:48;14.95;;;5.00;;
59006;SDS011;44792;52.760;6.726;2023-03-05T07:57:14;7.15;;;3.67;;
59006;SDS011;44792;52.760;6.726;2023-03-05T07:59:39;8.10;;;5.22;;
59006;SDS011;44792;52.760;6.726;2023-03-05T08:02:05;8.20;;;3.97;;
59006;SDS011;44792;52.760;6.726;2023-03-05T08:04:31;9.57;;;3.00;;
59006;SDS011;44792;52.760;6.726;2023-03-05T08:06:57;6.40;;;2.38;;
59006;SDS011;44792;52.760;6.726;2023-03-05T08:09:24;5.30;;;3.05;;
59006;SDS011;44792;52.760;6.726;2023-03-05T08:11:49;6.35;;;2.47;;
59006;SDS011;44792;52.760;6.726;2023-03-05T08:14:15;9.73;;;2.72;;
59006;SDS011;44792;52.760;6.726;2023-03-05T08:16:40;5.20;;;1.90;;
59006;SDS011;44792;52.760;6.726;2023-03-05T08:19:06;8.85;;;2.50;;
59006;SDS011;44792;52.760;6.726;2023-03-05T08:21:33;4.75;;;2.85;;
59006;SDS011;44792;52.760;6.726;2023-03-05T08:24:04;12.43;;;2.85;;
59006;SDS011;44792;52.760;6.726;2023-03-05T08:26:33;7.50;;;2.97;;
59006;SDS011;44792;52.760;6.726;2023-03-05T08:29:01;4.40;;;2.65;;
59006;SDS011;44792;52.760;6.726;2023-03-05T08:31:27;6.00;;;2.15;;
59006;SDS011;44792;52.760;6.726;2023-03-05T08:33:54;6.20;;;1.90;;
59006;SDS011;44792;52.760;6.726;2023-03-05T08:36:21;3.85;;;1.80;;
59006;SDS011;44792;52.760;6.726;2023-03-05T08:38:47;3.15;;;1.70;;
59006;SDS011;44792;52.760;6.726;2023-03-05T08:41:13;8.77;;;1.85;;
59006;SDS011;44792;52.760;6.726;2023-03-05T08:43:40;4.13;;;1.55;;
59006;SDS011;44792;52.760;6.726;2023-03-05T08:46:05;3.33;;;1.40;;
59006;SDS011;44792;52.760;6.726;2023-03-05T08:48:31;5.32;;;1.67;;
59006;SDS011;44792;52.760;6.726;2023-03-05T08:51:03;7.22;;;2.00;;
59006;SDS011;44792;52.760;6.726;2023-03-05T08:53:30;3.33;;;1.60;;
59006;SDS011;44792;52.760;6.726;2023-03-05T08:55:56;6.82;;;2.40;;
59006;SDS011;44792;52.760;6.726;2023-03-05T08:58:22;6.55;;;1.58;;
59006;SDS011;44792;52.760;6.726;2023-03-05T09:00:48;8.38;;;1.73;;
59006;SDS011;44792;52.760;6.726;2023-03-05T09:03:14;7.20;;;1.42;;
59006;SDS011;44792;52.760;6.726;2023-03-05T09:05:40;6.53;;;1.88;;
59006;SDS011;44792;52.760;6.726;2023-03-05T09:08:05;4.65;;;1.98;;
59006;SDS011;44792;52.760;6.726;2023-03-05T09:10:31;6.47;;;1.92;;
59006;SDS011;44792;52.760;6.726;2023-03-05T09:12:57;6.38;;;2.25;;
59006;SDS011;44792;52.760;6.726;2023-03-05T09:15:22;20.63;;;6.72;;
59006;SDS011;44792;52.760;6.726;2023-03-05T09:17:48;17.95;;;4.97;;
59006;SDS011;44792;52.760;6.726;2023-03-05T09:20:14;19.65;;;5.25;;
59006;SDS011;44792;52.760;6.726;2023-03-05T09:22:39;6.97;;;2.03;;
59006;SDS011;44792;52.760;6.726;2023-03-05T09:25:05;17.20;;;4.53;;
59006;SDS011;44792;52.760;6.726;2023-03-05T09:27:33;8.75;;;3.42;;
59006;SDS011;44792;52.760;6.726;2023-03-05T09:29:59;8.13;;;2.25;;
59006;SDS011;44792;52.760;6.726;2023-03-05T09:32:25;5.30;;;1.73;;
59006;SDS011;44792;52.760;6.726;2023-03-05T09:34:50;6.55;;;1.90;;
59006;SDS011;44792;52.760;6.726;2023-03-05T09:37:16;4.40;;;1.45;;
59006;SDS011;44792;52.760;6.726;2023-03-05T09:39:42;4.97;;;1.50;;
59006;SDS011;44792;52.760;6.726;2023-03-05T09:42:16;3.05;;;1.10;;
59006;SDS011;44792;52.760;6.726;2023-03-05T09:48:05;3.78;;;1.50;;
59006;SDS011;44792;52.760;6.726;2023-03-05T09:50:49;6.65;;;1.60;;
59006;SDS011;44792;52.760;6.726;2023-03-05T09:54:01;3.13;;;1.27;;
59006;SDS011;44792;52.760;6.726;2023-03-05T09:56:19;3.13;;;1.58;;
59006;SDS011;44792;52.760;6.726;2023-03-05T09:59:00;13.07;;;1.70;;
59006;SDS011;44792;52.760;6.726;2023-03-05T10:01:28;3.75;;;1.50;;
59006;SDS011;44792;52.760;6.726;2023-03-05T10:04:05;6.05;;;1.50;;
59006;SDS011;44792;52.760;6.726;2023-03-05T10:15:03;4.03;;;1.25;;
59006;SDS011;44792;52.760;6.726;2023-03-05T10:20:40;7.07;;;1.40;;
59006;SDS011;44792;52.760;6.726;2023-03-05T10:23:15;4.05;;;1.30;;
59006;SDS011;44792;52.760;6.726;2023-03-05T10:33:55;4.05;;;1.10;;
59006;SDS011;44792;52.760;6.726;2023-03-05T10:44:45;4.45;;;1.55;;
59006;SDS011;44792;52.760;6.726;2023-03-05T10:50:20;1.90;;;1.33;;
59006;SDS011;44792;52.760;6.726;2023-03-05T10:53:31;7.53;;;1.80;;
59006;SDS011;44792;52.760;6.726;2023-03-05T10:55:47;3.85;;;1.00;;
59006;SDS011;44792;52.760;6.726;2023-03-05T10:58:15;2.58;;;1.25;;
59006;SDS011;44792;52.760;6.726;2023-03-05T11:01:02;8.00;;;1.30;;
59006;SDS011;44792;52.760;6.726;2023-03-05T11:06:11;3.90;;;1.40;;
59006;SDS011;44792;52.760;6.726;2023-03-05T11:08:37;2.65;;;1.30;;
59006;SDS011;44792;52.760;6.726;2023-03-05T11:11:04;6.22;;;1.20;;
59006;SDS011;44792;52.760;6.726;2023-03-05T11:13:35;6.13;;;1.40;;
59006;SDS011;44792;52.760;6.726;2023-03-05T11:16:05;5.03;;;1.30;;
59006;SDS011;44792;52.760;6.726;2023-03-05T11:18:38;6.68;;;1.70;;
59006;SDS011;44792;52.760;6.726;2023-03-05T11:21:10;2.90;;;1.10;;
59006;SDS011;44792;52.760;6.726;2023-03-05T11:23:43;1.80;;;1.20;;
59006;SDS011;44792;52.760;6.726;2023-03-05T11:26:27;6.90;;;1.10;;
59006;SDS011;44792;52.760;6.726;2023-03-05T11:31:19;3.03;;;1.13;;
59006;SDS011;44792;52.760;6.726;2023-03-05T11:34:00;7.90;;;1.33;;
59006;SDS011;44792;52.760;6.726;2023-03-05T11:36:30;1.45;;;1.35;;
59006;SDS011;44792;52.760;6.726;2023-03-05T11:41:54;3.85;;;1.25;;
59006;SDS011;44792;52.760;6.726;2023-03-05T11:46:47;1.65;;;1.10;;
59006;SDS011;44792;52.760;6.726;2023-03-05T11:49:19;2.45;;;1.27;;
59006;SDS011;44792;52.760;6.726;2023-03-05T11:51:56;4.72;;;1.30;;
59006;SDS011;44792;52.760;6.726;2023-03-05T11:54:44;6.43;;;1.60;;
59006;SDS011;44792;52.760;6.726;2023-03-05T11:57:15;5.20;;;1.98;;
59006;SDS011;44792;52.760;6.726;2023-03-05T11:59:42;6.32;;;1.30;;
59006;SDS011;44792;52.760;6.726;2023-03-05T12:02:13;1.83;;;1.30;;
59006;SDS011;44792;52.760;6.726;2023-03-05T12:04:46;2.00;;;1.63;;
59006;SDS011;44792;52.760;6.726;2023-03-05T12:07:14;3.80;;;1.25;;
59006;SDS011;44792;52.760;6.726;2023-03-05T12:09:48;2.15;;;1.10;;
59006;SDS011;44792;52.760;6.726;2023-03-05T12:12:29;1.92;;;1.10;;
59006;SDS011;44792;52.760;6.726;2023-03-05T12:21:06;2.38;;;1.30;;
59006;SDS011;44792;52.760;6.726;2023-03-05T12:23:49;1.48;;;1.38;;
59006;SDS011;44792;52.760;6.726;2023-03-05T12:26:17;2.42;;;1.30;;
59006;SDS011;44792;52.760;6.726;2023-03-05T12:31:27;2.25;;;1.23;;
59006;SDS011;44792;52.760;6.726;2023-03-05T12:36:59;5.13;;;1.42;;
59006;SDS011;44792;52.760;6.726;2023-03-05T12:53:16;2.90;;;1.27;;
59006;SDS011;44792;52.760;6.726;2023-03-05T12:58:31;3.15;;;1.50;;
59006;SDS011;44792;52.760;6.726;2023-03-05T13:03:57;6.95;;;1.60;;
59006;SDS011;44792;52.760;6.726;2023-03-05T13:06:34;4.53;;;1.67;;
59006;SDS011;44792;52.760;6.726;2023-03-05T13:11:33;4.13;;;1.35;;
59006;SDS011;44792;52.760;6.726;2023-03-05T13:14:01;2.80;;;1.38;;
59006;SDS011;44792;52.760;6.726;2023-03-05T13:16:28;2.30;;;1.20;;
59006;SDS011;44792;52.760;6.726;2023-03-05T13:19:00;2.38;;;1.30;;
59006;SDS011;44792;52.760;6.726;2023-03-05T13:21:28;2.35;;;0.90;;
59006;SDS011;44792;52.760;6.726;2023-03-05T13:23:58;2.45;;;1.40;;
59006;SDS011;44792;52.760;6.726;2023-03-05T13:26:27;3.38;;;1.08;;
59006;SDS011;44792;52.760;6.726;2023-03-05T13:29:15;2.13;;;1.27;;
59006;SDS011;44792;52.760;6.726;2023-03-05T13:31:47;2.28;;;1.33;;
59006;SDS011;44792;52.760;6.726;2023-03-05T13:34:29;1.10;;;1.10;;
59006;SDS011;44792;52.760;6.726;2023-03-05T13:37:01;1.90;;;0.93;;
59006;SDS011;44792;52.760;6.726;2023-03-05T13:39:36;2.90;;;1.17;;
59006;SDS011;44792;52.760;6.726;2023-03-05T13:42:14;2.38;;;1.70;;
59006;SDS011;44792;52.760;6.726;2023-03-05T13:44:40;6.35;;;1.08;;
59006;SDS011;44792;52.760;6.726;2023-03-05T13:47:16;2.30;;;1.50;;
59006;SDS011;44792;52.760;6.726;2023-03-05T13:49:44;2.17;;;1.40;;
59006;SDS011;44792;52.760;6.726;2023-03-05T13:52:11;5.53;;;1.95;;
59006;SDS011;44792;52.760;6.726;2023-03-05T13:54:47;4.47;;;1.75;;
59006;SDS011;44792;52.760;6.726;2023-03-05T13:57:33;6.00;;;1.98;;
59006;SDS011;44792;52.760;6.726;2023-03-05T14:00:23;6.53;;;2.90;;
59006;SDS011;44792;52.760;6.726;2023-03-05T14:02:53;9.27;;;4.20;;
59006;SDS011;44792;52.760;6.726;2023-03-05T14:05:20;6.78;;;2.40;;
59006;SDS011;44792;52.760;6.726;2023-03-05T14:07:47;5.43;;;1.92;;
59006;SDS011;44792;52.760;6.726;2023-03-05T14:10:32;6.85;;;3.90;;
59006;SDS011;44792;52.760;6.726;2023-03-05T14:13:04;26.58;;;7.40;;
59006;SDS011;44792;52.760;6.726;2023-03-05T14:15:38;11.38;;;5.18;;
59006;SDS011;44792;52.760;6.726;2023-03-05T14:20:35;4.93;;;2.22;;
59006;SDS011;44792;52.760;6.726;2023-03-05T14:23:25;10.88;;;4.13;;
59006;SDS011;44792;52.760;6.726;2023-03-05T14:26:15;9.57;;;3.95;;
59006;SDS011;44792;52.760;6.726;2023-03-05T14:28:51;18.95;;;5.97;;
59006;SDS011;44792;52.760;6.726;2023-03-05T14:31:19;8.60;;;3.25;;
59006;SDS011;44792;52.760;6.726;2023-03-05T14:33:46;8.90;;;2.53;;
59006;SDS011;44792;52.760;6.726;2023-03-05T14:36:13;15.95;;;4.60;;
59006;SDS011;44792;52.760;6.726;2023-03-05T14:38:44;6.82;;;2.65;;
59006;SDS011;44792;52.760;6.726;2023-03-05T14:44:15;4.43;;;1.90;;
59006;SDS011;44792;52.760;6.726;2023-03-05T14:46:42;4.63;;;1.75;;
59006;SDS011;44792;52.760;6.726;2023-03-05T14:49:12;2.67;;;1.17;;
59006;SDS011;44792;52.760;6.726;2023-03-05T14:51:40;3.83;;;1.48;;
59006;SDS011;44792;52.760;6.726;2023-03-05T14:54:17;6.22;;;2.08;;
59006;SDS011;44792;52.760;6.726;2023-03-05T14:56:48;3.38;;;1.98;;
59006;SDS011;44792;52.760;6.726;2023-03-05T14:59:14;1.42;;;1.00;;
59006;SDS011;44792;52.760;6.726;2023-03-05T15:01:45;3.15;;;1.40;;
59006;SDS011;44792;52.760;6.726;2023-03-05T15:04:10;4.10;;;1.42;;
59006;SDS011;44792;52.760;6.726;2023-03-05T15:06:37;2.42;;;1.52;;
59006;SDS011;44792;52.760;6.726;2023-03-05T15:09:04;3.90;;;1.35;;
59006;SDS011;44792;52.760;6.726;2023-03-05T15:11:31;2.63;;;1.73;;
59006;SDS011;44792;52.760;6.726;2023-03-05T15:13:57;1.60;;;1.45;;
59006;SDS011;44792;52.760;6.726;2023-03-05T15:16:22;5.10;;;1.45;;
59006;SDS011;44792;52.760;6.726;2023-03-05T15:18:48;3.90;;;1.92;;
59006;SDS011;44792;52.760;6.726;2023-03-05T15:21:14;9.43;;;2.70;;
59006;SDS011;44792;52.760;6.726;2023-03-05T15:23:40;6.15;;;2.60;;
59006;SDS011;44792;52.760;6.726;2023-03-05T15:26:06;5.90;;;2.40;;
59006;SDS011;44792;52.760;6.726;2023-03-05T15:28:34;1.92;;;1.70;;
59006;SDS011;44792;52.760;6.726;2023-03-05T15:31:01;5.00;;;2.20;;
59006;SDS011;44792;52.760;6.726;2023-03-05T15:33:29;4.20;;;2.38;;
59006;SDS011;44792;52.760;6.726;2023-03-05T15:35:54;2.95;;;1.70;;
59006;SDS011;44792;52.760;6.726;2023-03-05T15:38:20;4.85;;;1.55;;
59006;SDS011;44792;52.760;6.726;2023-03-05T15:40:46;5.70;;;2.45;;
59006;SDS011;44792;52.760;6.726;2023-03-05T15:43:13;5.47;;;2.20;;
59006;SDS011;44792;52.760;6.726;2023-03-05T15:45:39;10.60;;;2.58;;
59006;SDS011;44792;52.760;6.726;2023-03-05T15:48:04;8.10;;;4.05;;
59006;SDS011;44792;52.760;6.726;2023-03-05T15:50:30;6.22;;;3.88;;
59006;SDS011;44792;52.760;6.726;2023-03-05T15:52:56;4.70;;;2.10;;
59006;SDS011;44792;52.760;6.726;2023-03-05T15:55:22;4.05;;;1.98;;
59006;SDS011;44792;52.760;6.726;2023-03-05T15:57:48;3.28;;;1.63;;
59006;SDS011;44792;52.760;6.726;2023-03-05T16:00:16;4.13;;;2.35;;
59006;SDS011;44792;52.760;6.726;2023-03-05T16:02:53;4.88;;;1.88;;
59006;SDS011;44792;52.760;6.726;2023-03-05T16:05:19;2.88;;;2.08;;
59006;SDS011;44792;52.760;6.726;2023-03-05T16:07:44;2.75;;;2.08;;
59006;SDS011;44792;52.760;6.726;2023-03-05T16:10:14;4.03;;;1.85;;
59006;SDS011;44792;52.760;6.726;2023-03-05T16:12:44;5.57;;;2.33;;
59006;SDS011;44792;52.760;6.726;2023-03-05T16:15:14;2.42;;;1.58;;
59006;SDS011;44792;52.760;6.726;2023-03-05T16:17:41;4.10;;;1.75;;
59006;SDS011;44792;52.760;6.726;2023-03-05T16:20:09;3.92;;;1.60;;